Kones Corner, South Dakota
Current Conditions -  °F | °C
As of 5:53 AM on Sunday 21 Dec 2014 (Local Time) from KATY Reporting Station
Haze Haze  
Wind Chill: 19°   Ceiling: 200
Heat Index: 29°   Visibility: 1.2mi
Dew Point: 28°   Wind: 12mph
Humidity: 96%   Direction: 180°S
Pressure: 29.76"   Gusts: NA
Location:  44.7326°N, 97.0258°W
Report Text: KATY 211153Z AUTO 18010KT 1 1/4SM BR OVC002 M02/M02 A2976 RMK AO2 SLP100 I1001 I6005 T10171022 11017 21022 56011
Loading
Personal Weather Stations






























Interactive Weather Map New forecast layout! Learn more

10-Day Weather Forecast

Advertisements
Track Severe Weather on mobile